sensor_id;sensor_type;location;lat;lon;timestamp;temperature;humidity
52167;DHT22;38149;52.666;6.428;2022-09-09T00:23:04;16.00;99.90
52167;DHT22;38149;52.666;6.428;2022-09-09T00:28:28;16.60;99.90
52167;DHT22;38149;52.666;6.428;2022-09-09T00:31:01;16.70;99.90
52167;DHT22;38149;52.666;6.428;2022-09-09T00:33:36;16.80;99.90
52167;DHT22;38149;52.666;6.428;2022-09-09T00:36:04;16.90;99.90
52167;DHT22;38149;52.666;6.428;2022-09-09T00:38:37;16.70;99.90
52167;DHT22;38149;52.666;6.428;2022-09-09T00:43:46;16.70;99.90
52167;DHT22;38149;52.666;6.428;2022-09-09T00:46:34;16.80;99.90
52167;DHT22;38149;52.666;6.428;2022-09-09T00:49:22;16.70;99.90
52167;DHT22;38149;52.666;6.428;2022-09-09T00:52:09;16.80;99.90
52167;DHT22;38149;52.666;6.428;2022-09-09T00:54:45;16.50;99.90
52167;DHT22;38149;52.666;6.428;2022-09-09T00:57:27;16.80;99.90
52167;DHT22;38149;52.666;6.428;2022-09-09T01:00:15;16.80;99.90
52167;DHT22;38149;52.666;6.428;2022-09-09T01:06:14;16.50;99.90
52167;DHT22;38149;52.666;6.428;2022-09-09T01:24:42;16.20;99.90
52167;DHT22;38149;52.666;6.428;2022-09-09T01:27:17;16.20;99.90
52167;DHT22;38149;52.666;6.428;2022-09-09T01:29:43;16.60;99.90
52167;DHT22;38149;52.666;6.428;2022-09-09T01:37:55;16.20;99.90
52167;DHT22;38149;52.666;6.428;2022-09-09T01:40:21;16.40;99.90
52167;DHT22;38149;52.666;6.428;2022-09-09T01:42:46;16.20;99.90
52167;DHT22;38149;52.666;6.428;2022-09-09T01:45:12;16.50;99.90
52167;DHT22;38149;52.666;6.428;2022-09-09T01:47:38;16.40;99.90
52167;DHT22;38149;52.666;6.428;2022-09-09T01:50:04;16.20;99.90
52167;DHT22;38149;52.666;6.428;2022-09-09T01:52:30;16.30;99.90
52167;DHT22;38149;52.666;6.428;2022-09-09T01:54:56;16.30;99.90
52167;DHT22;38149;52.666;6.428;2022-09-09T01:57:23;16.50;99.90
52167;DHT22;38149;52.666;6.428;2022-09-09T02:05:43;16.10;99.90
52167;DHT22;38149;52.666;6.428;2022-09-09T02:10:37;16.40;99.90
52167;DHT22;38149;52.666;6.428;2022-09-09T02:13:07;16.70;99.90
52167;DHT22;38149;52.666;6.428;2022-09-09T02:15:38;16.60;99.90
52167;DHT22;38149;52.666;6.428;2022-09-09T02:18:26;16.50;99.90
52167;DHT22;38149;52.666;6.428;2022-09-09T02:20:54;16.60;99.90
52167;DHT22;38149;52.666;6.428;2022-09-09T02:23:22;16.70;99.90
52167;DHT22;38149;52.666;6.428;2022-09-09T02:25:49;16.50;99.90
52167;DHT22;38149;52.666;6.428;2022-09-09T02:28:17;16.60;99.90
52167;DHT22;38149;52.666;6.428;2022-09-09T02:30:43;16.40;99.90
52167;DHT22;38149;52.666;6.428;2022-09-09T02:33:12;16.50;99.90
52167;DHT22;38149;52.666;6.428;2022-09-09T02:35:39;16.50;99.90
52167;DHT22;38149;52.666;6.428;2022-09-09T02:38:07;16.20;99.90
52167;DHT22;38149;52.666;6.428;2022-09-09T02:40:34;16.40;99.90
52167;DHT22;38149;52.666;6.428;2022-09-09T02:43:00;16.40;99.90
52167;DHT22;38149;52.666;6.428;2022-09-09T02:45:30;16.70;99.90
52167;DHT22;38149;52.666;6.428;2022-09-09T02:48:09;16.40;99.90
52167;DHT22;38149;52.666;6.428;2022-09-09T02:50:56;16.30;99.90
52167;DHT22;38149;52.666;6.428;2022-09-09T02:53:42;16.30;99.90
52167;DHT22;38149;52.666;6.428;2022-09-09T02:56:17;16.30;99.90
52167;DHT22;38149;52.666;6.428;2022-09-09T02:58:45;16.30;99.90
52167;DHT22;38149;52.666;6.428;2022-09-09T03:01:12;16.50;99.90
52167;DHT22;38149;52.666;6.428;2022-09-09T03:03:38;16.50;99.90
52167;DHT22;38149;52.666;6.428;2022-09-09T03:06:03;16.50;99.90
52167;DHT22;38149;52.666;6.428;2022-09-09T03:08:30;16.30;99.90
52167;DHT22;38149;52.666;6.428;2022-09-09T03:10:58;16.40;99.90
52167;DHT22;38149;52.666;6.428;2022-09-09T03:13:27;16.50;99.90
52167;DHT22;38149;52.666;6.428;2022-09-09T03:15:52;16.50;99.90
52167;DHT22;38149;52.666;6.428;2022-09-09T03:18:18;16.40;99.90
52167;DHT22;38149;52.666;6.428;2022-09-09T03:20:43;16.30;99.90
52167;DHT22;38149;52.666;6.428;2022-09-09T03:23:12;16.50;99.90
52167;DHT22;38149;52.666;6.428;2022-09-09T03:25:38;16.50;99.90
52167;DHT22;38149;52.666;6.428;2022-09-09T03:28:04;16.40;99.90
52167;DHT22;38149;52.666;6.428;2022-09-09T03:30:30;16.30;99.90
52167;DHT22;38149;52.666;6.428;2022-09-09T03:32:55;16.30;99.90
52167;DHT22;38149;52.666;6.428;2022-09-09T03:35:22;16.30;99.90
52167;DHT22;38149;52.666;6.428;2022-09-09T03:37:47;16.30;99.90
52167;DHT22;38149;52.666;6.428;2022-09-09T03:40:13;16.30;99.90
52167;DHT22;38149;52.666;6.428;2022-09-09T03:42:39;15.90;99.90
52167;DHT22;38149;52.666;6.428;2022-09-09T03:45:06;16.40;99.90
52167;DHT22;38149;52.666;6.428;2022-09-09T03:47:34;16.00;99.90
52167;DHT22;38149;52.666;6.428;2022-09-09T03:50:00;16.50;99.90
52167;DHT22;38149;52.666;6.428;2022-09-09T03:52:25;16.20;99.90
52167;DHT22;38149;52.666;6.428;2022-09-09T03:54:52;16.00;99.90
52167;DHT22;38149;52.666;6.428;2022-09-09T03:57:18;16.10;99.90
52167;DHT22;38149;52.666;6.428;2022-09-09T03:59:44;16.30;99.90
52167;DHT22;38149;52.666;6.428;2022-09-09T04:02:10;16.20;99.90
52167;DHT22;38149;52.666;6.428;2022-09-09T04:07:01;15.80;99.90
52167;DHT22;38149;52.666;6.428;2022-09-09T04:09:27;15.80;99.90
52167;DHT22;38149;52.666;6.428;2022-09-09T04:11:53;16.00;99.90
52167;DHT22;38149;52.666;6.428;2022-09-09T04:14:19;15.80;99.90
52167;DHT22;38149;52.666;6.428;2022-09-09T04:16:45;15.80;99.90
52167;DHT22;38149;52.666;6.428;2022-09-09T04:19:11;15.90;99.90
52167;DHT22;38149;52.666;6.428;2022-09-09T04:21:39;16.00;99.90
52167;DHT22;38149;52.666;6.428;2022-09-09T04:24:05;16.00;99.90
52167;DHT22;38149;52.666;6.428;2022-09-09T04:26:32;15.80;99.90
52167;DHT22;38149;52.666;6.428;2022-09-09T04:28:58;16.10;99.90
52167;DHT22;38149;52.666;6.428;2022-09-09T04:31:24;15.80;99.90
52167;DHT22;38149;52.666;6.428;2022-09-09T04:33:50;16.00;99.90
52167;DHT22;38149;52.666;6.428;2022-09-09T04:36:16;16.10;99.90
52167;DHT22;38149;52.666;6.428;2022-09-09T04:38:43;16.10;99.90
52167;DHT22;38149;52.666;6.428;2022-09-09T04:41:09;15.80;99.90
52167;DHT22;38149;52.666;6.428;2022-09-09T04:43:36;16.00;99.90
52167;DHT22;38149;52.666;6.428;2022-09-09T04:46:02;16.00;99.90
52167;DHT22;38149;52.666;6.428;2022-09-09T04:48:28;15.80;99.90
52167;DHT22;38149;52.666;6.428;2022-09-09T04:50:57;16.20;99.90
52167;DHT22;38149;52.666;6.428;2022-09-09T04:53:23;15.90;99.90
52167;DHT22;38149;52.666;6.428;2022-09-09T04:55:50;15.70;99.90
52167;DHT22;38149;52.666;6.428;2022-09-09T04:58:17;16.00;99.90
52167;DHT22;38149;52.666;6.428;2022-09-09T05:00:43;16.10;99.90
52167;DHT22;38149;52.666;6.428;2022-09-09T05:03:09;15.70;99.90
52167;DHT22;38149;52.666;6.428;2022-09-09T05:05:35;15.60;99.90
52167;DHT22;38149;52.666;6.428;2022-09-09T05:08:04;15.80;99.90
52167;DHT22;38149;52.666;6.428;2022-09-09T05:10:32;15.50;99.90
52167;DHT22;38149;52.666;6.428;2022-09-09T05:12:58;15.80;99.90
52167;DHT22;38149;52.666;6.428;2022-09-09T05:15:24;15.50;99.90
52167;DHT22;38149;52.666;6.428;2022-09-09T05:17:50;15.70;99.90
52167;DHT22;38149;52.666;6.428;2022-09-09T05:20:17;15.80;99.90
52167;DHT22;38149;52.666;6.428;2022-09-09T05:22:43;16.00;99.90
52167;DHT22;38149;52.666;6.428;2022-09-09T05:25:09;15.50;99.90
52167;DHT22;38149;52.666;6.428;2022-09-09T05:39:49;15.30;99.90
52167;DHT22;38149;52.666;6.428;2022-09-09T05:42:15;15.30;99.90
52167;DHT22;38149;52.666;6.428;2022-09-09T05:44:41;15.20;99.90
52167;DHT22;38149;52.666;6.428;2022-09-09T05:47:10;15.20;99.90
52167;DHT22;38149;52.666;6.428;2022-09-09T05:49:36;15.20;99.90
52167;DHT22;38149;52.666;6.428;2022-09-09T05:52:02;15.20;99.90
52167;DHT22;38149;52.666;6.428;2022-09-09T05:54:29;15.20;99.90
52167;DHT22;38149;52.666;6.428;2022-09-09T05:56:55;15.20;99.90
52167;DHT22;38149;52.666;6.428;2022-09-09T05:59:21;15.30;99.90
52167;DHT22;38149;52.666;6.428;2022-09-09T06:01:48;15.30;99.90
52167;DHT22;38149;52.666;6.428;2022-09-09T06:04:14;15.30;99.90
52167;DHT22;38149;52.666;6.428;2022-09-09T06:06:40;15.30;99.90
52167;DHT22;38149;52.666;6.428;2022-09-09T06:09:07;15.30;99.90
52167;DHT22;38149;52.666;6.428;2022-09-09T06:11:36;15.30;99.90
52167;DHT22;38149;52.666;6.428;2022-09-09T06:14:03;15.30;99.90
52167;DHT22;38149;52.666;6.428;2022-09-09T06:16:30;15.30;99.90
52167;DHT22;38149;52.666;6.428;2022-09-09T06:18:58;15.30;99.90
52167;DHT22;38149;52.666;6.428;2022-09-09T06:21:28;15.30;99.90
52167;DHT22;38149;52.666;6.428;2022-09-09T06:23:55;15.30;99.90
52167;DHT22;38149;52.666;6.428;2022-09-09T06:26:25;15.40;99.90
52167;DHT22;38149;52.666;6.428;2022-09-09T06:28:53;15.30;99.90
52167;DHT22;38149;52.666;6.428;2022-09-09T06:31:23;15.30;99.90
52167;DHT22;38149;52.666;6.428;2022-09-09T06:33:51;15.40;99.90
52167;DHT22;38149;52.666;6.428;2022-09-09T06:36:21;15.30;99.90
52167;DHT22;38149;52.666;6.428;2022-09-09T06:38:56;15.40;99.90
52167;DHT22;38149;52.666;6.428;2022-09-09T06:41:23;15.50;99.90
52167;DHT22;38149;52.666;6.428;2022-09-09T06:43:51;15.40;99.90
52167;DHT22;38149;52.666;6.428;2022-09-09T06:46:18;15.40;99.90
52167;DHT22;38149;52.666;6.428;2022-09-09T06:51:13;15.50;99.90
52167;DHT22;38149;52.666;6.428;2022-09-09T06:53:40;15.50;99.90
52167;DHT22;38149;52.666;6.428;2022-09-09T06:58:41;15.60;99.90
52167;DHT22;38149;52.666;6.428;2022-09-09T07:01:08;15.60;99.90
52167;DHT22;38149;52.666;6.428;2022-09-09T07:03:34;15.60;99.90
52167;DHT22;38149;52.666;6.428;2022-09-09T07:06:00;15.70;99.90
52167;DHT22;38149;52.666;6.428;2022-09-09T07:08:26;16.30;99.90
52167;DHT22;38149;52.666;6.428;2022-09-09T07:13:28;15.80;99.90
52167;DHT22;38149;52.666;6.428;2022-09-09T07:15:53;16.00;99.90
52167;DHT22;38149;52.666;6.428;2022-09-09T07:20:52;15.90;99.90
52167;DHT22;38149;52.666;6.428;2022-09-09T07:23:19;16.00;99.90
52167;DHT22;38149;52.666;6.428;2022-09-09T07:25:45;16.00;99.90
52167;DHT22;38149;52.666;6.428;2022-09-09T07:28:11;16.00;99.90
52167;DHT22;38149;52.666;6.428;2022-09-09T07:30:37;16.20;99.90
52167;DHT22;38149;52.666;6.428;2022-09-09T07:33:02;16.20;99.90
52167;DHT22;38149;52.666;6.428;2022-09-09T07:35:28;16.20;99.90
52167;DHT22;38149;52.666;6.428;2022-09-09T07:37:54;16.40;99.90
52167;DHT22;38149;52.666;6.428;2022-09-09T07:40:20;16.50;99.90
52167;DHT22;38149;52.666;6.428;2022-09-09T07:42:47;16.50;99.90
52167;DHT22;38149;52.666;6.428;2022-09-09T07:47:42;16.40;99.90
52167;DHT22;38149;52.666;6.428;2022-09-09T07:50:09;16.40;99.90
52167;DHT22;38149;52.666;6.428;2022-09-09T07:52:35;16.50;99.90
52167;DHT22;38149;52.666;6.428;2022-09-09T07:55:01;16.50;99.90
52167;DHT22;38149;52.666;6.428;2022-09-09T07:57:31;16.60;99.90
52167;DHT22;38149;52.666;6.428;2022-09-09T08:02:23;16.60;99.90
52167;DHT22;38149;52.666;6.428;2022-09-09T08:04:50;16.60;99.90
52167;DHT22;38149;52.666;6.428;2022-09-09T08:07:17;16.60;99.90
52167;DHT22;38149;52.666;6.428;2022-09-09T08:09:43;16.70;99.90
52167;DHT22;38149;52.666;6.428;2022-09-09T08:12:09;16.70;99.90
52167;DHT22;38149;52.666;6.428;2022-09-09T08:14:35;16.70;99.90
52167;DHT22;38149;52.666;6.428;2022-09-09T08:17:00;16.70;99.90
52167;DHT22;38149;52.666;6.428;2022-09-09T08:19:26;16.70;99.90
52167;DHT22;38149;52.666;6.428;2022-09-09T08:21:54;16.70;99.90
52167;DHT22;38149;52.666;6.428;2022-09-09T08:24:20;16.80;99.90
52167;DHT22;38149;52.666;6.428;2022-09-09T08:26:46;16.80;99.90
52167;DHT22;38149;52.666;6.428;2022-09-09T08:31:41;17.00;99.90
52167;DHT22;38149;52.666;6.428;2022-09-09T08:34:14;17.00;99.90
52167;DHT22;38149;52.666;6.428;2022-09-09T08:36:41;17.10;99.90
52167;DHT22;38149;52.666;6.428;2022-09-09T08:39:09;17.10;99.90
52167;DHT22;38149;52.666;6.428;2022-09-09T08:47:18;17.20;99.90
52167;DHT22;38149;52.666;6.428;2022-09-09T08:52:39;17.20;99.90
52167;DHT22;38149;52.666;6.428;2022-09-09T08:55:18;17.30;99.90
52167;DHT22;38149;52.666;6.428;2022-09-09T08:57:49;17.30;99.90
52167;DHT22;38149;52.666;6.428;2022-09-09T09:00:16;17.30;99.90
52167;DHT22;38149;52.666;6.428;2022-09-09T09:02:46;17.30;99.90
52167;DHT22;38149;52.666;6.428;2022-09-09T09:08:08;17.40;99.90
52167;DHT22;38149;52.666;6.428;2022-09-09T09:13:13;17.40;99.90
52167;DHT22;38149;52.666;6.428;2022-09-09T09:15:41;17.50;99.90
52167;DHT22;38149;52.666;6.428;2022-09-09T09:18:07;17.50;99.90
52167;DHT22;38149;52.666;6.428;2022-09-09T09:23:09;17.40;99.90
52167;DHT22;38149;52.666;6.428;2022-09-09T09:25:40;17.50;99.90
52167;DHT22;38149;52.666;6.428;2022-09-09T09:28:24;17.50;99.90
52167;DHT22;38149;52.666;6.428;2022-09-09T09:30:55;17.50;99.90
52167;DHT22;38149;52.666;6.428;2022-09-09T09:35:52;17.50;99.90
52167;DHT22;38149;52.666;6.428;2022-09-09T09:38:23;17.50;99.90
52167;DHT22;38149;52.666;6.428;2022-09-09T09:40:51;17.50;99.90
52167;DHT22;38149;52.666;6.428;2022-09-09T09:43:25;17.50;99.90
52167;DHT22;38149;52.666;6.428;2022-09-09T09:45:53;17.50;99.90
52167;DHT22;38149;52.666;6.428;2022-09-09T09:48:18;17.50;99.90
52167;DHT22;38149;52.666;6.428;2022-09-09T09:53:19;17.50;99.90
52167;DHT22;38149;52.666;6.428;2022-09-09T09:55:50;17.50;99.90
52167;DHT22;38149;52.666;6.428;2022-09-09T09:58:21;17.60;99.90
52167;DHT22;38149;52.666;6.428;2022-09-09T10:00:48;17.70;99.90
52167;DHT22;38149;52.666;6.428;2022-09-09T10:05:48;17.80;99.90
52167;DHT22;38149;52.666;6.428;2022-09-09T10:08:15;17.80;99.90
52167;DHT22;38149;52.666;6.428;2022-09-09T10:34:56;18.00;99.90
52167;DHT22;38149;52.666;6.428;2022-09-09T10:39:50;18.00;99.90
52167;DHT22;38149;52.666;6.428;2022-09-09T10:42:24;18.00;99.90
52167;DHT22;38149;52.666;6.428;2022-09-09T10:55:51;18.00;99.90
52167;DHT22;38149;52.666;6.428;2022-09-09T10:58:23;18.10;99.90
52167;DHT22;38149;52.666;6.428;2022-09-09T11:04:32;18.10;99.90
52167;DHT22;38149;52.666;6.428;2022-09-09T11:07:02;18.10;99.90
52167;DHT22;38149;52.666;6.428;2022-09-09T11:09:33;18.10;99.90
52167;DHT22;38149;52.666;6.428;2022-09-09T11:12:04;18.10;99.90
52167;DHT22;38149;52.666;6.428;2022-09-09T11:14:33;18.10;99.90
52167;DHT22;38149;52.666;6.428;2022-09-09T11:17:10;18.10;99.90
52167;DHT22;38149;52.666;6.428;2022-09-09T11:19:39;18.10;99.90
52167;DHT22;38149;52.666;6.428;2022-09-09T11:24:52;18.10;99.90
52167;DHT22;38149;52.666;6.428;2022-09-09T11:27:27;18.10;99.90
52167;DHT22;38149;52.666;6.428;2022-09-09T11:35:34;18.30;99.90
52167;DHT22;38149;52.666;6.428;2022-09-09T11:40:57;18.40;99.90
52167;DHT22;38149;52.666;6.428;2022-09-09T11:43:31;18.50;99.90
52167;DHT22;38149;52.666;6.428;2022-09-09T11:46:06;18.50;99.90
52167;DHT22;38149;52.666;6.428;2022-09-09T11:48:36;18.60;99.90
52167;DHT22;38149;52.666;6.428;2022-09-09T11:53:53;18.60;99.90
52167;DHT22;38149;52.666;6.428;2022-09-09T11:56:26;18.60;99.90
52167;DHT22;38149;52.666;6.428;2022-09-09T12:04:13;18.70;99.90
52167;DHT22;38149;52.666;6.428;2022-09-09T12:09:19;18.80;99.90
52167;DHT22;38149;52.666;6.428;2022-09-09T12:12:18;18.80;99.90
52167;DHT22;38149;52.666;6.428;2022-09-09T12:17:27;18.90;99.90
52167;DHT22;38149;52.666;6.428;2022-09-09T12:30:44;18.80;99.90
52167;DHT22;38149;52.666;6.428;2022-09-09T12:33:11;18.80;99.90
52167;DHT22;38149;52.666;6.428;2022-09-09T12:35:38;18.90;99.90
52167;DHT22;38149;52.666;6.428;2022-09-09T12:38:05;18.90;99.90
52167;DHT22;38149;52.666;6.428;2022-09-09T12:40:34;19.00;99.90
52167;DHT22;38149;52.666;6.428;2022-09-09T12:43:01;19.00;99.90
52167;DHT22;38149;52.666;6.428;2022-09-09T12:45:28;18.90;99.90
52167;DHT22;38149;52.666;6.428;2022-09-09T12:48:06;18.90;99.90
52167;DHT22;38149;52.666;6.428;2022-09-09T12:50:35;18.90;99.90
52167;DHT22;38149;52.666;6.428;2022-09-09T12:53:04;18.80;99.90
52167;DHT22;38149;52.666;6.428;2022-09-09T12:55:35;18.80;99.90
52167;DHT22;38149;52.666;6.428;2022-09-09T12:58:01;18.90;99.90
52167;DHT22;38149;52.666;6.428;2022-09-09T13:00:32;19.00;99.90
52167;DHT22;38149;52.666;6.428;2022-09-09T13:02:59;19.00;99.90
52167;DHT22;38149;52.666;6.428;2022-09-09T13:05:39;19.00;99.90
52167;DHT22;38149;52.666;6.428;2022-09-09T13:08:06;19.00;99.90
52167;DHT22;38149;52.666;6.428;2022-09-09T13:10:35;19.00;99.90
52167;DHT22;38149;52.666;6.428;2022-09-09T13:13:04;19.00;99.90
52167;DHT22;38149;52.666;6.428;2022-09-09T13:15:38;18.90;99.90
52167;DHT22;38149;52.666;6.428;2022-09-09T13:18:06;18.90;99.90
52167;DHT22;38149;52.666;6.428;2022-09-09T13:20:35;18.80;99.90
52167;DHT22;38149;52.666;6.428;2022-09-09T13:23:02;18.70;99.90
52167;DHT22;38149;52.666;6.428;2022-09-09T13:25:28;18.70;99.90
52167;DHT22;38149;52.666;6.428;2022-09-09T13:27:59;18.70;99.90
52167;DHT22;38149;52.666;6.428;2022-09-09T13:30:37;18.70;99.90
52167;DHT22;38149;52.666;6.428;2022-09-09T13:33:17;18.80;99.90
52167;DHT22;38149;52.666;6.428;2022-09-09T13:35:49;18.70;99.90
52167;DHT22;38149;52.666;6.428;2022-09-09T13:38:16;18.70;99.90
52167;DHT22;38149;52.666;6.428;2022-09-09T13:40:55;18.70;99.90
52167;DHT22;38149;52.666;6.428;2022-09-09T13:43:45;18.80;99.90
52167;DHT22;38149;52.666;6.428;2022-09-09T13:46:24;18.90;99.90
52167;DHT22;38149;52.666;6.428;2022-09-09T13:48:57;19.00;99.90
52167;DHT22;38149;52.666;6.428;2022-09-09T13:51:34;19.10;99.90
52167;DHT22;38149;52.666;6.428;2022-09-09T13:54:10;19.20;99.90
52167;DHT22;38149;52.666;6.428;2022-09-09T13:56:38;19.30;99.90
52167;DHT22;38149;52.666;6.428;2022-09-09T13:59:05;19.30;99.90
52167;DHT22;38149;52.666;6.428;2022-09-09T14:01:33;19.40;99.90
52167;DHT22;38149;52.666;6.428;2022-09-09T14:06:26;19.60;99.90
52167;DHT22;38149;52.666;6.428;2022-09-09T14:08:52;19.70;99.90
52167;DHT22;38149;52.666;6.428;2022-09-09T14:11:20;19.70;99.90
52167;DHT22;38149;52.666;6.428;2022-09-09T14:13:47;19.70;99.90
52167;DHT22;38149;52.666;6.428;2022-09-09T14:16:15;19.70;99.90
52167;DHT22;38149;52.666;6.428;2022-09-09T14:18:44;19.90;99.90
52167;DHT22;38149;52.666;6.428;2022-09-09T14:21:10;19.90;99.90
52167;DHT22;38149;52.666;6.428;2022-09-09T14:23:37;19.90;99.90
52167;DHT22;38149;52.666;6.428;2022-09-09T14:26:03;19.90;99.90
52167;DHT22;38149;52.666;6.428;2022-09-09T14:28:30;19.90;99.90
52167;DHT22;38149;52.666;6.428;2022-09-09T14:30:58;20.00;99.90
52167;DHT22;38149;52.666;6.428;2022-09-09T14:33:24;20.10;99.90
52167;DHT22;38149;52.666;6.428;2022-09-09T14:35:55;20.20;99.90
52167;DHT22;38149;52.666;6.428;2022-09-09T14:38:32;20.20;99.90
52167;DHT22;38149;52.666;6.428;2022-09-09T14:41:00;20.10;99.90
52167;DHT22;38149;52.666;6.428;2022-09-09T14:43:28;20.10;99.90
52167;DHT22;38149;52.666;6.428;2022-09-09T14:45:55;20.00;99.90
52167;DHT22;38149;52.666;6.428;2022-09-09T14:48:21;19.90;99.90
52167;DHT22;38149;52.666;6.428;2022-09-09T14:50:46;19.90;99.90
52167;DHT22;38149;52.666;6.428;2022-09-09T14:53:12;19.80;99.90
52167;DHT22;38149;52.666;6.428;2022-09-09T14:55:38;19.90;99.90
52167;DHT22;38149;52.666;6.428;2022-09-09T14:58:04;19.90;99.90
52167;DHT22;38149;52.666;6.428;2022-09-09T15:00:31;19.90;99.90
52167;DHT22;38149;52.666;6.428;2022-09-09T15:02:57;19.80;99.90
52167;DHT22;38149;52.666;6.428;2022-09-09T15:05:22;19.80;99.90
52167;DHT22;38149;52.666;6.428;2022-09-09T15:07:49;19.70;99.90
52167;DHT22;38149;52.666;6.428;2022-09-09T15:10:15;19.70;99.90
52167;DHT22;38149;52.666;6.428;2022-09-09T15:12:42;19.70;99.90
52167;DHT22;38149;52.666;6.428;2022-09-09T15:15:08;19.60;99.90
52167;DHT22;38149;52.666;6.428;2022-09-09T15:17:34;19.50;99.90
52167;DHT22;38149;52.666;6.428;2022-09-09T15:20:04;19.50;99.90
52167;DHT22;38149;52.666;6.428;2022-09-09T15:22:31;19.40;99.90
52167;DHT22;38149;52.666;6.428;2022-09-09T15:24:57;19.30;99.90
52167;DHT22;38149;52.666;6.428;2022-09-09T15:27:23;19.30;99.90
52167;DHT22;38149;52.666;6.428;2022-09-09T15:29:49;19.20;99.90
52167;DHT22;38149;52.666;6.428;2022-09-09T15:32:15;19.20;99.90
52167;DHT22;38149;52.666;6.428;2022-09-09T15:34:41;19.20;99.90
52167;DHT22;38149;52.666;6.428;2022-09-09T15:37:09;19.30;99.90
52167;DHT22;38149;52.666;6.428;2022-09-09T15:39:36;19.40;99.90
52167;DHT22;38149;52.666;6.428;2022-09-09T15:42:02;19.50;99.90
52167;DHT22;38149;52.666;6.428;2022-09-09T15:44:27;19.60;99.90
52167;DHT22;38149;52.666;6.428;2022-09-09T15:46:53;19.60;99.90
52167;DHT22;38149;52.666;6.428;2022-09-09T15:49:19;19.70;99.90
52167;DHT22;38149;52.666;6.428;2022-09-09T15:51:50;19.70;99.90
52167;DHT22;38149;52.666;6.428;2022-09-09T15:54:17;19.70;99.90
52167;DHT22;38149;52.666;6.428;2022-09-09T15:56:45;19.80;99.90
52167;DHT22;38149;52.666;6.428;2022-09-09T15:59:11;19.70;99.90
52167;DHT22;38149;52.666;6.428;2022-09-09T16:01:37;19.70;99.90
52167;DHT22;38149;52.666;6.428;2022-09-09T16:04:04;19.70;99.90
52167;DHT22;38149;52.666;6.428;2022-09-09T16:06:30;19.70;99.90
52167;DHT22;38149;52.666;6.428;2022-09-09T16:08:57;19.70;99.90
52167;DHT22;38149;52.666;6.428;2022-09-09T16:11:25;19.70;99.90
52167;DHT22;38149;52.666;6.428;2022-09-09T16:13:52;19.70;99.90
52167;DHT22;38149;52.666;6.428;2022-09-09T16:16:19;19.60;99.90
52167;DHT22;38149;52.666;6.428;2022-09-09T16:18:48;19.70;99.90
52167;DHT22;38149;52.666;6.428;2022-09-09T16:21:23;19.70;99.90
52167;DHT22;38149;52.666;6.428;2022-09-09T16:23:51;19.70;99.90
52167;DHT22;38149;52.666;6.428;2022-09-09T16:26:18;19.60;99.90
52167;DHT22;38149;52.666;6.428;2022-09-09T16:28:45;19.60;99.90
52167;DHT22;38149;52.666;6.428;2022-09-09T16:31:18;19.60;99.90
52167;DHT22;38149;52.666;6.428;2022-09-09T16:33:44;19.60;99.90
52167;DHT22;38149;52.666;6.428;2022-09-09T16:36:15;19.50;99.90
52167;DHT22;38149;52.666;6.428;2022-09-09T16:38:54;19.50;99.90
52167;DHT22;38149;52.666;6.428;2022-09-09T16:41:22;19.50;99.90
52167;DHT22;38149;52.666;6.428;2022-09-09T16:44:05;19.50;99.90
52167;DHT22;38149;52.666;6.428;2022-09-09T16:46:36;19.40;99.90
52167;DHT22;38149;52.666;6.428;2022-09-09T16:49:04;19.50;99.90
52167;DHT22;38149;52.666;6.428;2022-09-09T16:51:42;19.50;99.90
52167;DHT22;38149;52.666;6.428;2022-09-09T16:54:09;19.50;99.90
52167;DHT22;38149;52.666;6.428;2022-09-09T16:56:36;19.50;99.90
52167;DHT22;38149;52.666;6.428;2022-09-09T16:59:05;19.40;99.90
52167;DHT22;38149;52.666;6.428;2022-09-09T17:01:32;19.40;99.90
52167;DHT22;38149;52.666;6.428;2022-09-09T17:04:00;19.30;99.90
52167;DHT22;38149;52.666;6.428;2022-09-09T17:06:29;19.20;99.90
52167;DHT22;38149;52.666;6.428;2022-09-09T17:08:56;19.20;99.90
52167;DHT22;38149;52.666;6.428;2022-09-09T17:11:26;19.20;99.90
52167;DHT22;38149;52.666;6.428;2022-09-09T17:13:53;19.10;99.90
52167;DHT22;38149;52.666;6.428;2022-09-09T17:16:20;19.00;99.90
52167;DHT22;38149;52.666;6.428;2022-09-09T17:18:47;19.00;99.90
52167;DHT22;38149;52.666;6.428;2022-09-09T17:21:15;19.00;99.90
52167;DHT22;38149;52.666;6.428;2022-09-09T17:23:43;18.90;99.90
52167;DHT22;38149;52.666;6.428;2022-09-09T17:26:11;19.00;99.90
52167;DHT22;38149;52.666;6.428;2022-09-09T17:28:38;18.90;99.90
52167;DHT22;38149;52.666;6.428;2022-09-09T17:31:05;18.90;99.90
52167;DHT22;38149;52.666;6.428;2022-09-09T17:33:33;18.90;99.90
52167;DHT22;38149;52.666;6.428;2022-09-09T17:36:01;19.00;99.90
52167;DHT22;38149;52.666;6.428;2022-09-09T17:38:28;19.00;99.90
52167;DHT22;38149;52.666;6.428;2022-09-09T17:41:04;18.90;99.90
52167;DHT22;38149;52.666;6.428;2022-09-09T17:43:37;19.00;99.90
52167;DHT22;38149;52.666;6.428;2022-09-09T17:48:32;18.90;99.90
52167;DHT22;38149;52.666;6.428;2022-09-09T17:50:58;18.90;99.90
52167;DHT22;38149;52.666;6.428;2022-09-09T17:53:25;19.10;99.90
52167;DHT22;38149;52.666;6.428;2022-09-09T17:55:51;18.90;99.90
52167;DHT22;38149;52.666;6.428;2022-09-09T17:58:17;18.90;99.90
52167;DHT22;38149;52.666;6.428;2022-09-09T18:00:42;18.90;99.90
52167;DHT22;38149;52.666;6.428;2022-09-09T18:03:08;18.90;99.90
52167;DHT22;38149;52.666;6.428;2022-09-09T18:05:34;18.90;99.90
52167;DHT22;38149;52.666;6.428;2022-09-09T18:08:00;18.90;99.90
52167;DHT22;38149;52.666;6.428;2022-09-09T18:10:25;18.90;99.90
52167;DHT22;38149;52.666;6.428;2022-09-09T18:12:51;18.90;99.90
52167;DHT22;38149;52.666;6.428;2022-09-09T18:15:16;18.90;99.90
52167;DHT22;38149;52.666;6.428;2022-09-09T18:17:42;18.90;99.90
52167;DHT22;38149;52.666;6.428;2022-09-09T18:20:08;18.90;99.90
52167;DHT22;38149;52.666;6.428;2022-09-09T18:22:35;18.90;99.90
52167;DHT22;38149;52.666;6.428;2022-09-09T18:25:00;18.80;99.90
52167;DHT22;38149;52.666;6.428;2022-09-09T18:27:26;18.80;99.90
52167;DHT22;38149;52.666;6.428;2022-09-09T18:29:53;18.80;99.90
52167;DHT22;38149;52.666;6.428;2022-09-09T18:32:18;18.80;99.90
52167;DHT22;38149;52.666;6.428;2022-09-09T18:34:44;18.70;99.90
52167;DHT22;38149;52.666;6.428;2022-09-09T18:37:10;18.80;99.90
52167;DHT22;38149;52.666;6.428;2022-09-09T18:39:35;18.80;99.90
52167;DHT22;38149;52.666;6.428;2022-09-09T18:42:01;18.70;99.90
52167;DHT22;38149;52.666;6.428;2022-09-09T18:44:28;18.70;99.90
52167;DHT22;38149;52.666;6.428;2022-09-09T18:46:55;18.70;99.90
52167;DHT22;38149;52.666;6.428;2022-09-09T18:49:21;18.60;99.90
52167;DHT22;38149;52.666;6.428;2022-09-09T18:51:48;18.60;99.90
52167;DHT22;38149;52.666;6.428;2022-09-09T18:54:16;18.60;99.90
52167;DHT22;38149;52.666;6.428;2022-09-09T18:56:49;18.50;99.90